sensor_id;sensor_type;location;lat;lon;timestamp;pressure;altitude;pressure_sealevel;temperature;humidity
74441;BME280;62870;54.692;25.284;2022-08-18T00:03:36;1027;;;24.4;57.5
74441;BME280;62870;54.692;25.284;2022-08-18T00:08:22;1027;;;24.6;57.1
74441;BME280;62870;54.692;25.284;2022-08-18T00:13:14;1027;;;24.8;56.4
74441;BME280;62870;54.692;25.284;2022-08-18T00:18:32;1027;;;24.8;56
74441;BME280;62870;54.692;25.284;2022-08-18T00:23:38;1027;;;24.8;55.8
74441;BME280;62870;54.692;25.284;2022-08-18T00:28:08;1027.1;;;24.8;55.9
74441;BME280;62870;54.692;25.284;2022-08-18T00:33:10;1027.1;;;24.9;55.8
74441;BME280;62870;54.692;25.284;2022-08-18T00:38:04;1027.1;;;24.9;55.7
74441;BME280;62870;54.692;25.284;2022-08-18T00:42:52;1027.2;;;24.8;56
74441;BME280;62870;54.692;25.284;2022-08-18T00:48:05;1027.2;;;24.6;56.2
74441;BME280;62870;54.692;25.284;2022-08-18T00:52:53;1027.2;;;24.3;56.5
74441;BME280;62870;54.692;25.284;2022-08-18T00:58:38;1027.1;;;24.3;57
74441;BME280;62870;54.692;25.284;2022-08-18T01:03:24;1027.2;;;24.3;57.4
74441;BME280;62870;54.692;25.284;2022-08-18T01:08:15;1027.2;;;24.3;57.4
74441;BME280;62870;54.692;25.284;2022-08-18T01:13:36;1027.2;;;24.4;57.2
74441;BME280;62870;54.692;25.284;2022-08-18T01:18:24;1027.2;;;24.6;56.5
74441;BME280;62870;54.692;25.284;2022-08-18T01:23:36;1027.2;;;24.7;56.1
74441;BME280;62870;54.692;25.284;2022-08-18T01:27:50;1027.2;;;24.7;56.1
74441;BME280;62870;54.692;25.284;2022-08-18T01:33:02;1027.2;;;24.5;56.7
74441;BME280;62870;54.692;25.284;2022-08-18T01:38:36;1027.2;;;24.3;57.4
74441;BME280;62870;54.692;25.284;2022-08-18T01:43:22;1027.2;;;24;58.1
74441;BME280;62870;54.692;25.284;2022-08-18T01:48:02;1027.3;;;24;58
74441;BME280;62870;54.692;25.284;2022-08-18T01:53:28;1027.3;;;24;57.5
74441;BME280;62870;54.692;25.284;2022-08-18T01:58:24;1027.3;;;23.9;57.7
74441;BME280;62870;54.692;25.284;2022-08-18T02:03:11;1027.3;;;24.1;57.8
74441;BME280;62870;54.692;25.284;2022-08-18T02:08:24;1027.3;;;24.2;57.4
74441;BME280;62870;54.692;25.284;2022-08-18T02:13:38;1027.3;;;24.3;57
74441;BME280;62870;54.692;25.284;2022-08-18T02:18:12;1027.3;;;24.2;57.2
74441;BME280;62870;54.692;25.284;2022-08-18T02:23:04;1027.3;;;24.3;56.9
74441;BME280;62870;54.692;25.284;2022-08-18T02:28:38;1027.3;;;24.4;56.5
74441;BME280;62870;54.692;25.284;2022-08-18T02:33:38;1027.3;;;24.2;57
74441;BME280;62870;54.692;25.284;2022-08-18T02:38:37;1027.3;;;23.8;58.1
74441;BME280;62870;54.692;25.284;2022-08-18T02:43:07;1027.2;;;23.8;58.4
74441;BME280;62870;54.692;25.284;2022-08-18T02:48:36;1027.2;;;23.9;58
74441;BME280;62870;54.692;25.284;2022-08-18T02:53:39;1027.2;;;23.9;57.8
74441;BME280;62870;54.692;25.284;2022-08-18T02:58:38;1027.2;;;24.1;57.4
74441;BME280;62870;54.692;25.284;2022-08-18T03:02:56;1027.2;;;24.2;57.2
74441;BME280;62870;54.692;25.284;2022-08-18T03:08:16;1027.2;;;24.2;57.1
74441;BME280;62870;54.692;25.284;2022-08-18T03:13:02;1027.3;;;24.2;57
74441;BME280;62870;54.692;25.284;2022-08-18T03:18:16;1027.4;;;24.3;56.8
74441;BME280;62870;54.692;25.284;2022-08-18T03:23:14;1027.5;;;24.4;56.6
74441;BME280;62870;54.692;25.284;2022-08-18T03:27:50;1027.6;;;24.4;56.7
74441;BME280;62870;54.692;25.284;2022-08-18T03:33:24;1027.5;;;24.3;56.7
74441;BME280;62870;54.692;25.284;2022-08-18T03:38:30;1027.4;;;24;57.3
74441;BME280;62870;54.692;25.284;2022-08-18T03:43:16;1027.4;;;23.9;57.6
74441;BME280;62870;54.692;25.284;2022-08-18T03:48:39;1027.5;;;23.8;57.9
74441;BME280;62870;54.692;25.284;2022-08-18T03:53:36;1027.4;;;24;57.5
74441;BME280;62870;54.692;25.284;2022-08-18T03:57:50;1027.3;;;24.2;56.9
74441;BME280;62870;54.692;25.284;2022-08-18T04:03:02;1027.3;;;24.4;56.5
74441;BME280;62870;54.692;25.284;2022-08-18T04:08:00;1027.4;;;24.3;56.7
74441;BME280;62870;54.692;25.284;2022-08-18T04:13:22;1027.4;;;24.5;56.2
74441;BME280;62870;54.692;25.284;2022-08-18T04:18:24;1027.5;;;24.7;55.7
74441;BME280;62870;54.692;25.284;2022-08-18T04:23:30;1027.4;;;25.1;54.9
74441;BME280;62870;54.692;25.284;2022-08-18T04:28:31;1027.4;;;25.3;54.6
74441;BME280;62870;54.692;25.284;2022-08-18T04:33:10;1027.4;;;25.5;54.3
74441;BME280;62870;54.692;25.284;2022-08-18T04:37:56;1027.4;;;25.5;53.8
74441;BME280;62870;54.692;25.284;2022-08-18T04:43:02;1027.4;;;25.6;53.6
74441;BME280;62870;54.692;25.284;2022-08-18T04:47:50;1027.4;;;25.7;53.3
74441;BME280;62870;54.692;25.284;2022-08-18T04:53:08;1027.4;;;25.8;53.7
74441;BME280;62870;54.692;25.284;2022-08-18T04:58:02;1027.4;;;25.8;53.7
74441;BME280;62870;54.692;25.284;2022-08-18T05:03:38;1027.4;;;25.7;54
74441;BME280;62870;54.692;25.284;2022-08-18T05:07:52;1027.4;;;25.5;54.4
74441;BME280;62870;54.692;25.284;2022-08-18T05:13:16;1027.4;;;25.6;54.5
74441;BME280;62870;54.692;25.284;2022-08-18T05:18:16;1027.3;;;25.9;54
74441;BME280;62870;54.692;25.284;2022-08-18T05:23:28;1027.4;;;26;53.9
74441;BME280;62870;54.692;25.284;2022-08-18T05:28:39;1027.4;;;26.1;53.6
74441;BME280;62870;54.692;25.284;2022-08-18T05:33:10;1027.5;;;26.3;53.3
74441;BME280;62870;54.692;25.284;2022-08-18T05:37:56;1027.4;;;26.5;52.8
74441;BME280;62870;54.692;25.284;2022-08-18T05:43:02;1027.5;;;26.5;52.8
74441;BME280;62870;54.692;25.284;2022-08-18T05:48:22;1027.5;;;26.6;52.6
74441;BME280;62870;54.692;25.284;2022-08-18T05:53:13;1027.5;;;26.8;52.2
74441;BME280;62870;54.692;25.284;2022-08-18T05:57:54;1027.5;;;27.1;51.8
74441;BME280;62870;54.692;25.284;2022-08-18T06:03:27;1027.5;;;27.3;51.6
74441;BME280;62870;54.692;25.284;2022-08-18T06:08:37;1027.5;;;27.3;51.5
74441;BME280;62870;54.692;25.284;2022-08-18T06:13:16;1027.5;;;27.3;51.2
74441;BME280;62870;54.692;25.284;2022-08-18T06:19:16;1027.5;;;27.3;51.3
74441;BME280;62870;54.692;25.284;2022-08-18T06:23:41;1027.6;;;27.5;51.2
74441;BME280;62870;54.692;25.284;2022-08-18T06:28:18;1027.6;;;27.7;50.9
74441;BME280;62870;54.692;25.284;2022-08-18T06:33:05;1027.7;;;27.9;50.6
74441;BME280;62870;54.692;25.284;2022-08-18T06:38:02;1027.7;;;28;50.5
74441;BME280;62870;54.692;25.284;2022-08-18T06:43:38;1027.8;;;28.1;49.9
74441;BME280;62870;54.692;25.284;2022-08-18T06:48:30;1027.8;;;28.4;49.2
74441;BME280;62870;54.692;25.284;2022-08-18T06:52:53;1027.9;;;28.8;48.6
74441;BME280;62870;54.692;25.284;2022-08-18T06:58:31;1027.9;;;29.1;47.9
74441;BME280;62870;54.692;25.284;2022-08-18T07:03:23;1027.9;;;29.5;47.1
74441;BME280;62870;54.692;25.284;2022-08-18T07:08:22;1027.9;;;29.6;45.9
74441;BME280;62870;54.692;25.284;2022-08-18T07:13:25;1027.9;;;29.8;45.7
74441;BME280;62870;54.692;25.284;2022-08-18T07:18:38;1027.9;;;30;45.5
74441;BME280;62870;54.692;25.284;2022-08-18T07:23:03;1027.9;;;30.2;45.4
74441;BME280;62870;54.692;25.284;2022-08-18T07:28:02;1027.9;;;30.6;45.1
74441;BME280;62870;54.692;25.284;2022-08-18T07:33:37;1028;;;30.8;44.8
74441;BME280;62870;54.692;25.284;2022-08-18T07:38:39;1027.9;;;31.1;42.9
74441;BME280;62870;54.692;25.284;2022-08-18T07:43:52;1027.9;;;31.3;42.5
74441;BME280;62870;54.692;25.284;2022-08-18T07:48:05;1028;;;31.6;42
74441;BME280;62870;54.692;25.284;2022-08-18T07:53:49;1028.1;;;31.8;41.9
74441;BME280;62870;54.692;25.284;2022-08-18T07:58:42;1028.1;;;31.9;41.6
74441;BME280;62870;54.692;25.284;2022-08-18T08:03:00;1028.1;;;32.1;41.4
74441;BME280;62870;54.692;25.284;2022-08-18T08:08:14;1028.1;;;32.4;40
74441;BME280;62870;54.692;25.284;2022-08-18T08:12:57;1028.1;;;32.4;39.8
74441;BME280;62870;54.692;25.284;2022-08-18T08:18:07;1028.1;;;32.6;39.6
74441;BME280;62870;54.692;25.284;2022-08-18T08:23:20;1028.2;;;32.9;39.3
74441;BME280;62870;54.692;25.284;2022-08-18T08:28:27;1028.1;;;33;39.2
74441;BME280;62870;54.692;25.284;2022-08-18T08:33:37;1028.1;;;33.2;38.5
74441;BME280;62870;54.692;25.284;2022-08-18T08:38:07;1028.1;;;33.2;38
74441;BME280;62870;54.692;25.284;2022-08-18T08:43:16;1028.1;;;33.1;37.5
74441;BME280;62870;54.692;25.284;2022-08-18T08:48:40;1028.2;;;33.3;37.3
74441;BME280;62870;54.692;25.284;2022-08-18T08:53:26;1028.2;;;33.7;37.4
74441;BME280;62870;54.692;25.284;2022-08-18T08:58:39;1028.2;;;34;37
74441;BME280;62870;54.692;25.284;2022-08-18T09:08:08;1028.2;;;34.6;35.7
74441;BME280;62870;54.692;25.284;2022-08-18T09:13:58;1028.2;;;34.7;35.4
74441;BME280;62870;54.692;25.284;2022-08-18T09:18:45;1028.1;;;34.8;35.4
74441;BME280;62870;54.692;25.284;2022-08-18T09:22:52;1028;;;34.9;34.4
74441;BME280;62870;54.692;25.284;2022-08-18T09:28:41;1027.9;;;34.9;34.2
74441;BME280;62870;54.692;25.284;2022-08-18T09:33:26;1027.9;;;34.8;34.2
74441;BME280;62870;54.692;25.284;2022-08-18T09:38:15;1027.9;;;34.9;34.6
74441;BME280;62870;54.692;25.284;2022-08-18T09:43:30;1027.8;;;34.8;34.7
74441;BME280;62870;54.692;25.284;2022-08-18T09:48:40;1027.8;;;35.1;34.1
74441;BME280;62870;54.692;25.284;2022-08-18T09:52:56;1027.8;;;35.4;32.8
74441;BME280;62870;54.692;25.284;2022-08-18T09:58:13;1027.9;;;35.5;33
74441;BME280;62870;54.692;25.284;2022-08-18T10:03:40;1027.9;;;35.7;32.3
74441;BME280;62870;54.692;25.284;2022-08-18T10:08:49;1027.8;;;35.7;32.7
74441;BME280;62870;54.692;25.284;2022-08-18T10:13:42;1027.8;;;35.9;32.5
74441;BME280;62870;54.692;25.284;2022-08-18T10:23:48;1027.8;;;36.2;30.9
74441;BME280;62870;54.692;25.284;2022-08-18T10:29:50;1027.8;;;36.3;30.6
74441;BME280;62870;54.692;25.284;2022-08-18T10:32:53;1027.8;;;36.3;30.8
74441;BME280;62870;54.692;25.284;2022-08-18T10:38:14;1027.8;;;36.6;30.1
74441;BME280;62870;54.692;25.284;2022-08-18T10:43:08;1027.8;;;36.8;30.2
74441;BME280;62870;54.692;25.284;2022-08-18T10:48:16;1027.7;;;36.6;30.2
74441;BME280;62870;54.692;25.284;2022-08-18T10:58:23;1027.7;;;36.6;28.3
74441;BME280;62870;54.692;25.284;2022-08-18T11:04:19;1027.7;;;36.9;28.4
74441;BME280;62870;54.692;25.284;2022-08-18T11:08:26;1027.7;;;37.2;28
74441;BME280;62870;54.692;25.284;2022-08-18T11:13:24;1027.7;;;37.3;27.7
74441;BME280;62870;54.692;25.284;2022-08-18T11:18:42;1027.7;;;37.4;27.4
74441;BME280;62870;54.692;25.284;2022-08-18T11:23:26;1027.7;;;37.2;26.9
74441;BME280;62870;54.692;25.284;2022-08-18T11:28:42;1027.7;;;37.2;27.1
74441;BME280;62870;54.692;25.284;2022-08-18T11:32:52;1027.7;;;37.5;26.4
74441;BME280;62870;54.692;25.284;2022-08-18T11:38:09;1027.7;;;37.7;26.1
74441;BME280;62870;54.692;25.284;2022-08-18T11:43:42;1027.6;;;38;25.8
74441;BME280;62870;54.692;25.284;2022-08-18T11:48:45;1027.7;;;37.9;24.3
74441;BME280;62870;54.692;25.284;2022-08-18T11:52:52;1027.8;;;37.5;23.8
74441;BME280;62870;54.692;25.284;2022-08-18T11:58:39;1027.7;;;37.1;24.3
74441;BME280;62870;54.692;25.284;2022-08-18T12:03:27;1027.6;;;37.4;24.4
74441;BME280;62870;54.692;25.284;2022-08-18T12:08:15;1027.6;;;37.4;24.4
74441;BME280;62870;54.692;25.284;2022-08-18T12:13:24;1027.5;;;37.4;24.7
74441;BME280;62870;54.692;25.284;2022-08-18T12:18:40;1027.5;;;37.7;24.3
74441;BME280;62870;54.692;25.284;2022-08-18T12:23:12;1027.5;;;38.1;24.2
74441;BME280;62870;54.692;25.284;2022-08-18T12:27:53;1027.5;;;38.1;23.6
74441;BME280;62870;54.692;25.284;2022-08-18T12:33:38;1027.5;;;37.8;23.3
74441;BME280;62870;54.692;25.284;2022-08-18T12:38:42;1027.5;;;37.7;23.4
74441;BME280;62870;54.692;25.284;2022-08-18T12:43:40;1027.5;;;37.9;23.6
74441;BME280;62870;54.692;25.284;2022-08-18T12:48:14;1027.4;;;38.4;23.1
74441;BME280;62870;54.692;25.284;2022-08-18T12:53:42;1027.4;;;38.6;23
74441;BME280;62870;54.692;25.284;2022-08-18T12:58:42;1027.5;;;38.6;22.7
74441;BME280;62870;54.692;25.284;2022-08-18T13:03:00;1027.5;;;38.3;23.1
74441;BME280;62870;54.692;25.284;2022-08-18T13:07:53;1027.5;;;38;23.1
74441;BME280;62870;54.692;25.284;2022-08-18T13:13:06;1027.4;;;38.1;23.5
74441;BME280;62870;54.692;25.284;2022-08-18T13:18:04;1027.4;;;38.1;23.7
74441;BME280;62870;54.692;25.284;2022-08-18T13:23:18;1027.4;;;38.1;23.4
74441;BME280;62870;54.692;25.284;2022-08-18T13:28:16;1027.3;;;38;23.2
74441;BME280;62870;54.692;25.284;2022-08-18T13:33:40;1027.3;;;38.2;23.7
74441;BME280;62870;54.692;25.284;2022-08-18T13:38:26;1027.3;;;38.6;23.3
74441;BME280;62870;54.692;25.284;2022-08-18T13:43:02;1027.2;;;38.8;22.3
74441;BME280;62870;54.692;25.284;2022-08-18T13:48:41;1027.2;;;39.1;22.5
74441;BME280;62870;54.692;25.284;2022-08-18T13:53:29;1027.2;;;39.1;22.8
74441;BME280;62870;54.692;25.284;2022-08-18T13:58:42;1027.2;;;39.1;22.7
74441;BME280;62870;54.692;25.284;2022-08-18T14:02:52;1027.2;;;39;22.8
74441;BME280;62870;54.692;25.284;2022-08-18T14:08:18;1027.1;;;39.2;23
74441;BME280;62870;54.692;25.284;2022-08-18T14:13:40;1027.1;;;39;23.1
74441;BME280;62870;54.692;25.284;2022-08-18T14:18:28;1027.1;;;39.1;22.9
74441;BME280;62870;54.692;25.284;2022-08-18T14:23:18;1027;;;39.3;23
74441;BME280;62870;54.692;25.284;2022-08-18T14:28:18;1027;;;39.4;22.6
74441;BME280;62870;54.692;25.284;2022-08-18T14:33:25;1027.1;;;39.5;22.9
74441;BME280;62870;54.692;25.284;2022-08-18T14:38:14;1027.1;;;39.5;22.9
74441;BME280;62870;54.692;25.284;2022-08-18T14:43:30;1027;;;39.4;23.1
74441;BME280;62870;54.692;25.284;2022-08-18T14:48:42;1027;;;39.5;22.9
74441;BME280;62870;54.692;25.284;2022-08-18T14:52:58;1027;;;39.1;23.3
74441;BME280;62870;54.692;25.284;2022-08-18T14:58:04;1027;;;39.2;23.4
74441;BME280;62870;54.692;25.284;2022-08-18T15:03:38;1027;;;39.3;23.4
74441;BME280;62870;54.692;25.284;2022-08-18T15:08:40;1027;;;39;23.4
74441;BME280;62870;54.692;25.284;2022-08-18T15:13:41;1027;;;38.9;23.9
74441;BME280;62870;54.692;25.284;2022-08-18T15:18:14;1027.1;;;38.9;24.1
74441;BME280;62870;54.692;25.284;2022-08-18T15:23:42;1027;;;38.8;23.9
74441;BME280;62870;54.692;25.284;2022-08-18T15:28:42;1027;;;38.6;24.1
74441;BME280;62870;54.692;25.284;2022-08-18T15:33:15;1027;;;38.6;24.3
74441;BME280;62870;54.692;25.284;2022-08-18T15:38:18;1027;;;38.5;24.2
74441;BME280;62870;54.692;25.284;2022-08-18T15:43:06;1027;;;38.3;24.4
74441;BME280;62870;54.692;25.284;2022-08-18T15:48:04;1027;;;38.3;24.5
74441;BME280;62870;54.692;25.284;2022-08-18T15:53:06;1027;;;38.3;24.8
74441;BME280;62870;54.692;25.284;2022-08-18T15:57:53;1027;;;38;25.1
74441;BME280;62870;54.692;25.284;2022-08-18T16:03:19;1027;;;37.7;25.6
74441;BME280;62870;54.692;25.284;2022-08-18T16:08:20;1027;;;38;25.7
74441;BME280;62870;54.692;25.284;2022-08-18T16:13:40;1027;;;38.2;25.6
74441;BME280;62870;54.692;25.284;2022-08-18T16:18:05;1027;;;38.1;25.6
74441;BME280;62870;54.692;25.284;2022-08-18T16:23:44;1027;;;37.9;25.8
74441;BME280;62870;54.692;25.284;2022-08-18T16:28:46;1027;;;37.8;26.1
74441;BME280;62870;54.692;25.284;2022-08-18T16:32:53;1027;;;37.5;26.3
74441;BME280;62870;54.692;25.284;2022-08-18T16:38:07;1027.1;;;37.3;26.6
74441;BME280;62870;54.692;25.284;2022-08-18T16:43:06;1027.1;;;37;27
74441;BME280;62870;54.692;25.284;2022-08-18T16:48:43;1027;;;36.7;27.5
74441;BME280;62870;54.692;25.284;2022-08-18T16:53:30;1027;;;36.2;28.5
74441;BME280;62870;54.692;25.284;2022-08-18T16:58:40;1027;;;35.9;29.1
74441;BME280;62870;54.692;25.284;2022-08-18T17:03:30;1027.1;;;35.2;30.2
74441;BME280;62870;54.692;25.284;2022-08-18T17:08:24;1027.1;;;34.8;30.7
74441;BME280;62870;54.692;25.284;2022-08-18T17:13:12;1027.1;;;34.5;31.2
74441;BME280;62870;54.692;25.284;2022-08-18T17:18:31;1027.1;;;34.3;31.7
74441;BME280;62870;54.692;25.284;2022-08-18T17:22:52;1027.1;;;33.7;33.2
74441;BME280;62870;54.692;25.284;2022-08-18T17:28:04;1027.1;;;33.3;34.3
74441;BME280;62870;54.692;25.284;2022-08-18T17:33:15;1027.1;;;33;35.1
74441;BME280;62870;54.692;25.284;2022-08-18T17:38:48;1027.2;;;32.6;35.1
74441;BME280;62870;54.692;25.284;2022-08-18T17:43:32;1027.3;;;32.4;35.4
74441;BME280;62870;54.692;25.284;2022-08-18T17:48:20;1027.4;;;32.3;35.8
74441;BME280;62870;54.692;25.284;2022-08-18T17:53:05;1027.4;;;32.1;36.9
74441;BME280;62870;54.692;25.284;2022-08-18T17:58:35;1027.4;;;31.8;37.9
74441;BME280;62870;54.692;25.284;2022-08-18T18:03:42;1027.4;;;31.4;39
74441;BME280;62870;54.692;25.284;2022-08-18T18:08:12;1027.4;;;30.8;40
74441;BME280;62870;54.692;25.284;2022-08-18T18:13:11;1027.4;;;30.4;39.8
74441;BME280;62870;54.692;25.284;2022-08-18T18:18:16;1027.4;;;30.1;40.1
74441;BME280;62870;54.692;25.284;2022-08-18T18:22:52;1027.4;;;29.9;41
74441;BME280;62870;54.692;25.284;2022-08-18T18:28:27;1027.4;;;29.6;42.4
74441;BME280;62870;54.692;25.284;2022-08-18T18:33:18;1027.4;;;29.3;43.1
74441;BME280;62870;54.692;25.284;2022-08-18T18:38:30;1027.4;;;29.1;43
74441;BME280;62870;54.692;25.284;2022-08-18T18:43:43;1027.4;;;29;42.8
74441;BME280;62870;54.692;25.284;2022-08-18T18:48:18;1027.4;;;28.9;42.9
74441;BME280;62870;54.692;25.284;2022-08-18T18:53:49;1027.4;;;28.8;43.3
74441;BME280;62870;54.692;25.284;2022-08-18T18:58:45;1027.5;;;28.7;44.1
74441;BME280;62870;54.692;25.284;2022-08-18T19:03:36;1027.6;;;28.6;44.3
74441;BME280;62870;54.692;25.284;2022-08-18T19:07:56;1027.7;;;28.6;44.4
74441;BME280;62870;54.692;25.284;2022-08-18T19:13:18;1027.7;;;28.5;44.2
74441;BME280;62870;54.692;25.284;2022-08-18T19:18:43;1027.8;;;28.4;44.2
74441;BME280;62870;54.692;25.284;2022-08-18T19:23:33;1027.8;;;28.4;44.6
74441;BME280;62870;54.692;25.284;2022-08-18T19:28:34;1027.9;;;28.3;45.3
74441;BME280;62870;54.692;25.284;2022-08-18T19:33:20;1028;;;28.2;45.5
74441;BME280;62870;54.692;25.284;2022-08-18T19:38:50;1028;;;28.2;45.5
74441;BME280;62870;54.692;25.284;2022-08-18T19:43:21;1028.1;;;28.2;45.4
74441;BME280;62870;54.692;25.284;2022-08-18T19:48:34;1028.1;;;28.2;45.5
74441;BME280;62870;54.692;25.284;2022-08-18T19:53:05;1028.2;;;28.1;46.5
74441;BME280;62870;54.692;25.284;2022-08-18T19:57:58;1028.2;;;28;47
74441;BME280;62870;54.692;25.284;2022-08-18T20:03:09;1028.2;;;28;47.2
74441;BME280;62870;54.692;25.284;2022-08-18T20:08:49;1028.2;;;27.9;47.5
74441;BME280;62870;54.692;25.284;2022-08-18T20:13:45;1028.2;;;28;47.3
74441;BME280;62870;54.692;25.284;2022-08-18T20:18:35;1028.3;;;28.1;47.3
74441;BME280;62870;54.692;25.284;2022-08-18T20:23:27;1028.3;;;28.1;47.7
74441;BME280;62870;54.692;25.284;2022-08-18T20:28:42;1028.3;;;28;48.3
74441;BME280;62870;54.692;25.284;2022-08-18T20:33:46;1028.3;;;28;47.8
74441;BME280;62870;54.692;25.284;2022-08-18T20:38:18;1028.4;;;28;47.8
74441;BME280;62870;54.692;25.284;2022-08-18T20:43:03;1028.4;;;27.9;47.6
74441;BME280;62870;54.692;25.284;2022-08-18T20:48:11;1028.4;;;27.6;48
74441;BME280;62870;54.692;25.284;2022-08-18T20:57:53;1028.3;;;27.4;49.6
74441;BME280;62870;54.692;25.284;2022-08-18T21:03:19;1028.2;;;27.4;49.9
74441;BME280;62870;54.692;25.284;2022-08-18T21:08:47;1028.2;;;27.5;49.8
74441;BME280;62870;54.692;25.284;2022-08-18T21:12:56;1028.3;;;27.6;49.5
74441;BME280;62870;54.692;25.284;2022-08-18T21:18:17;1028.4;;;27.7;49
74441;BME280;62870;54.692;25.284;2022-08-18T21:23:42;1028.4;;;27.8;48.6
74441;BME280;62870;54.692;25.284;2022-08-18T21:28:29;1028.5;;;27.8;48.7
74441;BME280;62870;54.692;25.284;2022-08-18T21:33:47;1028.6;;;28;48.5
74441;BME280;62870;54.692;25.284;2022-08-18T21:37:53;1028.7;;;28.1;48.3
74441;BME280;62870;54.692;25.284;2022-08-18T21:43:05;1028.7;;;28.3;48.1
74441;BME280;62870;54.692;25.284;2022-08-18T21:48:45;1028.8;;;28.3;48.2
74441;BME280;62870;54.692;25.284;2022-08-18T21:53:31;1028.8;;;28.2;48.4
74441;BME280;62870;54.692;25.284;2022-08-18T21:58:28;1028.8;;;28.3;48.3
74441;BME280;62870;54.692;25.284;2022-08-18T22:03:29;1028.8;;;28.2;48.3
74441;BME280;62870;54.692;25.284;2022-08-18T22:08:29;1028.7;;;28.2;48.5
74441;BME280;62870;54.692;25.284;2022-08-18T22:13:03;1028.7;;;28.2;48.6
74441;BME280;62870;54.692;25.284;2022-08-18T22:18:44;1028.7;;;28.1;48.7
74441;BME280;62870;54.692;25.284;2022-08-18T22:23:34;1028.7;;;28;49
74441;BME280;62870;54.692;25.284;2022-08-18T22:28:01;1028.7;;;27.9;49.4
74441;BME280;62870;54.692;25.284;2022-08-18T22:33:01;1028.7;;;27.9;49.5
74441;BME280;62870;54.692;25.284;2022-08-18T22:38:37;1028.7;;;27.8;49.5
74441;BME280;62870;54.692;25.284;2022-08-18T22:43:39;1028.7;;;28;49.3
74441;BME280;62870;54.692;25.284;2022-08-18T22:48:39;1028.7;;;28;49.6
74441;BME280;62870;54.692;25.284;2022-08-18T22:53:15;1028.7;;;27.9;49.4
74441;BME280;62870;54.692;25.284;2022-08-18T22:58:39;1028.6;;;27.9;49.5
74441;BME280;62870;54.692;25.284;2022-08-18T23:03:39;1028.6;;;27.7;49.9
74441;BME280;62870;54.692;25.284;2022-08-18T23:08:01;1028.6;;;27.6;49.8
74441;BME280;62870;54.692;25.284;2022-08-18T23:13:01;1028.6;;;27.5;50.4
74441;BME280;62870;54.692;25.284;2022-08-18T23:18:03;1028.6;;;27.6;50.3
74441;BME280;62870;54.692;25.284;2022-08-18T23:23:03;1028.5;;;27.6;50.3
74441;BME280;62870;54.692;25.284;2022-08-18T23:28:17;1028.5;;;27.6;50.2
74441;BME280;62870;54.692;25.284;2022-08-18T23:33:15;1028.5;;;27.5;50.7
74441;BME280;62870;54.692;25.284;2022-08-18T23:38:39;1028.5;;;27.5;50.8
74441;BME280;62870;54.692;25.284;2022-08-18T23:43:27;1028.5;;;27.5;50.8
74441;BME280;62870;54.692;25.284;2022-08-18T23:48:13;1028.4;;;27.5;50.8
74441;BME280;62870;54.692;25.284;2022-08-18T23:53:41;1028.4;;;27.6;50.6
74441;BME280;62870;54.692;25.284;2022-08-18T23:58:25;1028.5;;;27.5;50.8
